EGTE

Exeter International Airport

Exeter, United Kingdom
METAR EGTE 161220Z 17006KT 9999 VCSH SCT010 SCT015 09/07 Q1003
Observed Flight Rules
Dec-16 @ 12:20 UTC (25 minutes ago) Visual Flight Rules
Wind Visibility Clouds
170° at 6 knots 10,000+ meters
  • Scattered at 1,000' AGL
  • Scattered at 1,500' AGL
Temperatures Readings
Current 9°C / 48°F
Dewpoint 7°C / 45°F
Humidity 87%
Altimeter 29.62" Hg
Pressure 1003 hPa
Elevation 30
METAR EGTE 161220Z 17006KT 9999 VCSH SCT010 SCT015 09/07 Q1003
Observed Flight Rules
Dec-16 @ 12:20 UTC
(25 minutes ago)
VFR
Wind Visibility
170° at 6 knots 10,000+ meters
Clouds
  • Scattered at 1,000' AGL
  • Scattered at 1,500' AGL
Temperature Dewpoint
9°C / 48°F 7°C / 45°F
Humidity Altimeter Pressure
87% 29.62" Hg 1003 hPa